Home » Aircrafts » Cessna » Citation » Cessna Citation CJ2 | Jung Sky | 9A-JSD | Landing at Cannes Mandelieu with ATC

Airport : Cannes Mandelieu Airport (CEQ/LFMD)
Aircraft : Cessna 525A CitationJet CJ2
Airline : Jung Sky
Registration : 9A-JSD
Flight Number : JSY208D (JUNG SKY 208D)
From : Belgrade Nikola Tesla (BEG/LYBE)
Camera : Panasonic HC-V180
Date 20th June 2020
METAR : LFMD 201330Z AUTO 16005KT 120V190 CAVOK 24/17 Q1016 NOSIG

Add comment

Your email address will not be published. Required fields are marked *

Log In

Aircraft Sale

There are no ads matching your search criteria.

Categories